AQQ10 IFIS: Internet Flight Information System
logo dgac
Martes 21 de Septiembre del 2021
Buscar por aerodromo o helipuerto
Ingrese nombre de aeródromo, localidad o designador OACI:
METAR del 21-09-2021 a las 10:00 UTC
Para mayor información visite www.meteochile.cl
METAR SCCC 211000Z AUTO 20005KT CAVOK 00/M02 Q1023
Viento: dirección 200 grados, velocidad 5 nudos
Visibilidad: 10 km o más,
    sin nubes bajo los 5.000 pies o bajo del MSA (Mínimo de Seguridad del Aeródromo),
    sin cumulonimbus, y sin fenómenos de tiempo significativo en el aeródromo o alrededores
Temperatura: 0 °C
Rocío: -2 °C
Humedad_relativa: 86%
Presión: 1023 hPa
METAR del 21-09-2021 a las 09:00 UTC
Para mayor información visite www.meteochile.cl
METAR SCCC 210900Z AUTO 18004KT CAVOK 00/M02 Q1023
Viento: dirección 180 grados, velocidad 4 nudos
Visibilidad: 10 km o más,
    sin nubes bajo los 5.000 pies o bajo del MSA (Mínimo de Seguridad del Aeródromo),
    sin cumulonimbus, y sin fenómenos de tiempo significativo en el aeródromo o alrededores
Temperatura: 0 °C
Rocío: -2 °C
Humedad_relativa: 86%
Presión: 1023 hPa
METAR del 21-09-2021 a las 07:00 UTC
Para mayor información visite www.meteochile.cl
METAR SCCC 210700Z AUTO 22003KT CAVOK 01/M02 Q1024
Viento: dirección 220 grados, velocidad 3 nudos
Visibilidad: 10 km o más,
    sin nubes bajo los 5.000 pies o bajo del MSA (Mínimo de Seguridad del Aeródromo),
    sin cumulonimbus, y sin fenómenos de tiempo significativo en el aeródromo o alrededores
Temperatura: 1 °C
Rocío: -2 °C
Humedad_relativa: 80%
Presión: 1024 hPa
METAR del 21-09-2021 a las 05:00 UTC
Para mayor información visite www.meteochile.cl
METAR SCCC 210500Z AUTO 15003KT 120V200 CAVOK 01/M02 Q1025
Viento: dirección 150 grados, velocidad 3 nudos
Viento con dirección variable entre 120 y 200 grados
Visibilidad: 10 km o más,
    sin nubes bajo los 5.000 pies o bajo del MSA (Mínimo de Seguridad del Aeródromo),
    sin cumulonimbus, y sin fenómenos de tiempo significativo en el aeródromo o alrededores
Temperatura: 1 °C
Rocío: -2 °C
Humedad_relativa: 80%
Presión: 1025 hPa
METAR del 21-09-2021 a las 04:00 UTC
Para mayor información visite www.meteochile.cl
METAR SCCC 210400Z AUTO 16005KT CAVOK 03/M02 Q1024
Viento: dirección 160 grados, velocidad 5 nudos
Visibilidad: 10 km o más,
    sin nubes bajo los 5.000 pies o bajo del MSA (Mínimo de Seguridad del Aeródromo),
    sin cumulonimbus, y sin fenómenos de tiempo significativo en el aeródromo o alrededores
Temperatura: 3 °C
Rocío: -2 °C
Humedad_relativa: 70%
Presión: 1024 hPa
METAR del 21-09-2021 a las 03:00 UTC
Para mayor información visite www.meteochile.cl
METAR SCCC 210300Z AUTO 20003KT 160V250 CAVOK 04/M02 Q1024
Viento: dirección 200 grados, velocidad 3 nudos
Viento con dirección variable entre 160 y 250 grados
Visibilidad: 10 km o más,
    sin nubes bajo los 5.000 pies o bajo del MSA (Mínimo de Seguridad del Aeródromo),
    sin cumulonimbus, y sin fenómenos de tiempo significativo en el aeródromo o alrededores
Temperatura: 4 °C
Rocío: -2 °C
Humedad_relativa: 65%
Presión: 1024 hPa
METAR del 21-09-2021 a las 01:00 UTC
Para mayor información visite www.meteochile.cl
METAR SCCC 210100Z AUTO VRB04KT CAVOK 08/M01 Q1024
Viento: dirección variable, velocidad 4 nudos
Visibilidad: 10 km o más,
    sin nubes bajo los 5.000 pies o bajo del MSA (Mínimo de Seguridad del Aeródromo),
    sin cumulonimbus, y sin fenómenos de tiempo significativo en el aeródromo o alrededores
Temperatura: 8 °C
Rocío: -1 °C
Humedad_relativa: 53%
Presión: 1024 hPa
METAR del 21-09-2021 a las 00:00 UTC
Para mayor información visite www.meteochile.cl
METAR SCCC 210000Z AUTO 18006KT 150V210 CAVOK 09/M01 Q1024
Viento: dirección 180 grados, velocidad 6 nudos
Viento con dirección variable entre 150 y 210 grados
Visibilidad: 10 km o más,
    sin nubes bajo los 5.000 pies o bajo del MSA (Mínimo de Seguridad del Aeródromo),
    sin cumulonimbus, y sin fenómenos de tiempo significativo en el aeródromo o alrededores
Temperatura: 9 °C
Rocío: -1 °C
Humedad_relativa: 50%
Presión: 1024 hPa
METAR del 20-09-2021 a las 23:00 UTC
Para mayor información visite www.meteochile.cl
METAR SCCC 202300Z AUTO VRB03KT CAVOK 11/M01 Q1023
Viento: dirección variable, velocidad 3 nudos
Visibilidad: 10 km o más,
    sin nubes bajo los 5.000 pies o bajo del MSA (Mínimo de Seguridad del Aeródromo),
    sin cumulonimbus, y sin fenómenos de tiempo significativo en el aeródromo o alrededores
Temperatura: 11 °C
Rocío: -1 °C
Humedad_relativa: 43%
Presión: 1023 hPa
METAR del 20-09-2021 a las 22:00 UTC
Para mayor información visite www.meteochile.cl
METAR SCCC 202200Z AUTO 32010KT 290V350 CAVOK 15/M01 Q1023
Viento: dirección 320 grados, velocidad 10 nudos
Viento con dirección variable entre 290 y 350 grados
Visibilidad: 10 km o más,
    sin nubes bajo los 5.000 pies o bajo del MSA (Mínimo de Seguridad del Aeródromo),
    sin cumulonimbus, y sin fenómenos de tiempo significativo en el aeródromo o alrededores
Temperatura: 15 °C
Rocío: -1 °C
Humedad_relativa: 33%
Presión: 1023 hPa